createdAt,value
2023-04-24T00:03:16.946Z,6.80
2023-04-24T00:13:21.730Z,5.75
2023-04-24T00:23:23.799Z,7.15
2023-04-24T00:33:31.490Z,6.85
2023-04-24T00:43:36.290Z,6.70
2023-04-24T00:53:41.458Z,6.47
2023-04-24T01:03:44.146Z,6.25
2023-04-24T01:13:46.393Z,6.13
2023-04-24T01:23:49.705Z,6.68
2023-04-24T01:33:55.350Z,7.28
2023-04-24T01:43:59.197Z,7.03
2023-04-24T01:54:03.991Z,8.27
2023-04-24T02:04:10.036Z,8.48
2023-04-24T02:14:16.214Z,7.20
2023-04-24T02:24:20.546Z,8.65
2023-04-24T02:34:24.396Z,6.65
2023-04-24T02:44:26.630Z,8.40
2023-04-24T02:54:29.233Z,7.47
2023-04-24T03:04:31.487Z,7.65
2023-04-24T03:14:34.704Z,7.32
2023-04-24T03:24:39.040Z,7.95
2023-04-24T03:34:41.680Z,7.82
2023-04-24T03:44:46.665Z,8.43
2023-04-24T03:54:53.809Z,8.35
2023-04-24T04:04:58.309Z,7.68
2023-04-24T04:15:02.735Z,8.55
2023-04-24T04:25:06.195Z,7.53
2023-04-24T04:35:11.308Z,9.05
2023-04-24T04:45:13.959Z,7.82
2023-04-24T04:55:38.252Z,8.15
2023-04-24T05:05:52.883Z,8.55
2023-04-24T05:15:56.449Z,7.70
2023-04-24T05:25:58.970Z,7.75
2023-04-24T05:36:03.439Z,8.07
2023-04-24T05:46:05.917Z,8.63
2023-04-24T05:56:08.157Z,7.82
2023-04-24T06:06:12.789Z,8.23
2023-04-24T06:16:17.536Z,8.90
2023-04-24T06:26:29.224Z,8.30
2023-04-24T06:36:35.776Z,8.15
2023-04-24T06:46:41.755Z,9.52
2023-04-24T06:56:51.486Z,7.97
2023-04-24T07:06:57.106Z,8.38
2023-04-24T07:16:59.543Z,9.20
2023-04-24T07:27:06.377Z,8.35
2023-04-24T07:37:08.512Z,8.15
2023-04-24T07:47:17.083Z,7.88
2023-04-24T07:57:20.342Z,8.45
2023-04-24T08:07:27.241Z,7.97
2023-04-24T08:17:29.380Z,8.88
2023-04-24T08:27:31.496Z,8.18
2023-04-24T08:37:34.009Z,8.10
2023-04-24T08:47:39.143Z,7.88
2023-04-24T08:57:46.311Z,9.87
2023-04-24T09:07:53.386Z,8.13
2023-04-24T09:17:58.454Z,6.85
2023-04-24T09:28:04.984Z,7.13
2023-04-24T09:38:09.339Z,6.10
2023-04-24T09:48:17.049Z,6.47
2023-04-24T09:58:27.707Z,6.18
2023-04-24T10:08:35.863Z,5.90
2023-04-24T10:18:41.276Z,5.93
2023-04-24T10:28:47.117Z,6.18
2023-04-24T10:38:52.348Z,7.57
2023-04-24T10:48:56.750Z,6.97
2023-04-24T10:59:02.398Z,6.30
2023-04-24T11:09:07.359Z,5.10
2023-04-24T11:19:16.561Z,5.97
2023-04-24T11:29:22.347Z,5.90
2023-04-24T11:39:27.442Z,5.28
2023-04-24T11:49:34.488Z,4.82
2023-04-24T11:59:39.151Z,4.60
2023-04-24T12:09:46.640Z,4.68
2023-04-24T12:19:51.994Z,5.68
2023-04-24T12:30:00.515Z,5.40
2023-04-24T12:40:11.513Z,4.25
2023-04-24T12:50:15.778Z,4.80
2023-04-24T13:00:22.343Z,3.50
2023-04-24T13:10:26.951Z,3.10
2023-04-24T13:20:29.167Z,2.80
2023-04-24T13:30:33.627Z,2.90
2023-04-24T13:40:40.926Z,3.40
2023-04-24T13:50:44.303Z,3.80
2023-04-24T14:00:48.913Z,3.10
2023-04-24T14:10:53.378Z,2.92
2023-04-24T14:21:01.008Z,3.47
2023-04-24T14:31:09.428Z,3.30
2023-04-24T14:41:14.976Z,3.50
2023-04-24T14:51:25.121Z,3.25
2023-04-24T15:01:27.803Z,3.95
2023-04-24T15:11:36.039Z,3.78
2023-04-24T15:21:42.763Z,3.15
2023-04-24T15:31:44.855Z,3.42
2023-04-24T15:41:52.080Z,3.28
2023-04-24T15:52:01.536Z,3.15
2023-04-24T16:02:19.652Z,3.38
2023-04-24T16:12:21.815Z,3.65
2023-04-24T16:22:24.007Z,3.88
2023-04-24T16:32:28.520Z,3.78
2023-04-24T16:42:35.095Z,3.40
2023-04-24T16:52:38.838Z,3.80
2023-04-24T17:02:41.190Z,4.35
2023-04-24T17:12:43.410Z,4.00
2023-04-24T17:22:48.458Z,3.75
2023-04-24T17:32:55.055Z,4.20
2023-04-24T17:42:59.568Z,4.35
2023-04-24T17:53:05.201Z,4.10
2023-04-24T18:03:11.090Z,4.20
2023-04-24T18:13:13.637Z,5.00
2023-04-24T18:23:20.639Z,5.03
2023-04-24T18:33:25.965Z,5.97
2023-04-24T18:43:31.223Z,4.45
2023-04-24T18:53:34.187Z,4.85
2023-04-24T19:03:41.413Z,5.53
2023-04-24T19:13:46.741Z,5.03
2023-04-24T19:23:53.037Z,5.47
2023-04-24T19:33:55.140Z,5.30
2023-04-24T19:44:02.214Z,4.50
2023-04-24T19:54:06.572Z,5.68
2023-04-24T20:04:12.241Z,5.47
2023-04-24T20:14:14.653Z,5.63
2023-04-24T20:24:19.376Z,6.22
2023-04-24T20:34:24.970Z,6.22
2023-04-24T20:44:27.163Z,6.75
2023-04-24T20:54:29.973Z,8.20
2023-04-24T21:04:40.265Z,7.45
2023-04-24T21:14:51.027Z,8.27
2023-04-24T21:24:53.509Z,9.40
2023-04-24T21:35:00.406Z,7.57
2023-04-24T21:45:05.523Z,7.82
2023-04-24T21:55:10.554Z,7.68
2023-04-24T22:05:20.675Z,7.07
2023-04-24T22:15:22.818Z,7.70
2023-04-24T22:25:27.168Z,8.18
2023-04-24T22:35:29.688Z,8.27
2023-04-24T22:45:35.171Z,8.13
2023-04-24T22:55:37.248Z,9.77
2023-04-24T23:05:44.726Z,8.48
2023-04-24T23:15:54.864Z,9.60
2023-04-24T23:25:57.255Z,10.07
2023-04-24T23:35:59.738Z,9.90
2023-04-24T23:46:04.491Z,10.85
2023-04-24T23:56:07.045Z,11.00
